createdAt,value
2023-09-18T00:03:53.951Z,21.20
2023-09-18T00:08:55.802Z,21.20
2023-09-18T00:13:57.683Z,21.10
2023-09-18T00:18:59.682Z,21.20
2023-09-18T00:24:01.649Z,21.20
2023-09-18T00:29:03.549Z,21.20
2023-09-18T00:34:05.463Z,21.20
2023-09-18T00:39:07.349Z,21.20
2023-09-18T00:44:09.224Z,21.20
2023-09-18T00:49:11.521Z,21.10
2023-09-18T00:54:13.501Z,21.20
2023-09-18T00:59:15.761Z,21.20
2023-09-18T01:04:18.839Z,21.10
2023-09-18T01:09:21.069Z,21.20
2023-09-18T01:14:34.802Z,21.20
2023-09-18T01:19:40.317Z,21.20
2023-09-18T01:24:45.217Z,21.20
2023-09-18T01:29:48.355Z,21.20
2023-09-18T01:34:53.189Z,21.20
2023-09-18T01:39:55.935Z,21.20
2023-09-18T01:44:57.889Z,21.10
2023-09-18T01:50:07.178Z,21.20
2023-09-18T01:55:09.655Z,21.20
2023-09-18T02:00:13.070Z,21.10
2023-09-18T02:05:15.784Z,21.10
2023-09-18T02:10:17.818Z,21.10
2023-09-18T02:15:19.717Z,21.10
2023-09-18T02:20:21.622Z,21.10
2023-09-18T02:25:23.596Z,21.10
2023-09-18T02:30:26.300Z,21.10
2023-09-18T02:35:29.128Z,21.10
2023-09-18T02:40:30.989Z,21.10
2023-09-18T02:45:34.398Z,21.10
2023-09-18T02:50:36.532Z,21.10
2023-09-18T02:55:38.533Z,21.10
2023-09-18T03:00:45.272Z,21.10
2023-09-18T03:05:47.544Z,21.10
2023-09-18T03:10:49.433Z,21.10
2023-09-18T03:15:51.422Z,21.10
2023-09-18T03:20:53.591Z,21.10
2023-09-18T03:25:56.337Z,21.10
2023-09-18T03:30:59.830Z,21.10
2023-09-18T03:36:01.942Z,21.10
2023-09-18T03:41:08.649Z,21.10
2023-09-18T03:46:10.633Z,21.10
2023-09-18T03:51:21.581Z,21.10
2023-09-18T03:56:23.742Z,21.10
2023-09-18T04:01:25.896Z,21.10
2023-09-18T04:06:38.756Z,21.10
2023-09-18T04:11:42.232Z,21.10
2023-09-18T04:16:45.099Z,21.10
2023-09-18T04:21:46.971Z,21.10
2023-09-18T04:26:51.856Z,21.10
2023-09-18T04:31:55.230Z,21.10
2023-09-18T04:36:57.370Z,21.10
2023-09-18T04:41:59.930Z,21.10
2023-09-18T04:47:02.843Z,21.10
2023-09-18T04:52:06.460Z,21.10
2023-09-18T04:57:09.184Z,21.10
2023-09-18T05:02:12.159Z,21.10
2023-09-18T05:07:14.338Z,21.10
2023-09-18T05:12:17.047Z,21.10
2023-09-18T05:17:19.409Z,21.10
2023-09-18T05:22:21.358Z,21.10
2023-09-18T05:27:27.475Z,21.10
2023-09-18T05:32:29.602Z,21.10
2023-09-18T05:37:31.546Z,21.10
2023-09-18T05:42:33.457Z,21.10
2023-09-18T05:47:39.760Z,21.10
2023-09-18T05:52:42.034Z,21.10
2023-09-18T05:57:44.028Z,21.10
2023-09-18T06:02:46.956Z,21.10
2023-09-18T06:07:51.503Z,21.10
2023-09-18T06:12:53.775Z,21.10
2023-09-18T06:17:55.939Z,21.10
2023-09-18T06:22:57.890Z,21.20
2023-09-18T06:28:01.708Z,21.10
2023-09-18T06:33:05.452Z,21.10
2023-09-18T06:38:07.913Z,21.10
2023-09-18T06:43:09.829Z,21.10
2023-09-18T06:48:11.745Z,21.10
2023-09-18T06:53:13.637Z,21.10
2023-09-18T06:58:15.565Z,21.10
2023-09-18T07:03:18.980Z,21.20
2023-09-18T07:08:24.343Z,21.20
2023-09-18T07:13:26.523Z,21.20
2023-09-18T07:18:28.496Z,21.20
2023-09-18T07:23:30.463Z,21.20
2023-09-18T07:28:32.304Z,21.20
2023-09-18T07:33:34.691Z,21.20
2023-09-18T07:38:37.266Z,21.20
2023-09-18T07:43:40.897Z,21.20
2023-09-18T07:48:42.726Z,21.20
2023-09-18T07:53:45.765Z,21.20
2023-09-18T07:58:48.196Z,21.20
2023-09-18T08:03:50.802Z,21.20
2023-09-18T08:08:53.070Z,21.20
2023-09-18T08:13:55.168Z,21.20
2023-09-18T08:18:57.942Z,21.20
2023-09-18T08:24:00.251Z,21.20
2023-09-18T08:29:02.166Z,21.20
2023-09-18T08:34:04.033Z,21.20
2023-09-18T08:39:09.052Z,21.20
2023-09-18T08:44:11.222Z,21.20
2023-09-18T08:49:14.105Z,21.20
2023-09-18T08:54:16.696Z,21.20
2023-09-18T08:59:19.065Z,21.20
2023-09-18T09:04:22.041Z,21.30
2023-09-18T09:09:24.317Z,21.30
2023-09-18T09:14:29.541Z,21.20
2023-09-18T09:19:33.810Z,21.20
2023-09-18T09:24:45.270Z,21.30
2023-09-18T09:30:02.368Z,21.30
2023-09-18T09:35:08.297Z,21.30
2023-09-18T09:40:15.459Z,21.30
2023-09-18T09:45:17.547Z,21.30
2023-09-18T09:50:20.628Z,21.30
2023-09-18T09:55:27.028Z,21.30
2023-09-18T10:00:44.102Z,21.30
2023-09-18T10:05:51.884Z,21.30
2023-09-18T10:10:55.914Z,21.30
2023-09-18T10:16:02.124Z,21.30
2023-09-18T10:21:11.737Z,21.30
2023-09-18T10:26:19.299Z,21.30
2023-09-18T10:31:21.690Z,21.30
2023-09-18T10:36:34.529Z,21.30
2023-09-18T10:41:39.493Z,21.30
2023-09-18T10:46:41.644Z,21.30
2023-09-18T10:51:47.568Z,21.30
2023-09-18T10:56:56.450Z,21.30
2023-09-18T11:02:07.729Z,21.30
2023-09-18T11:07:13.986Z,21.30
2023-09-18T11:12:19.138Z,21.30
2023-09-18T11:18:00.095Z,21.30
2023-09-18T11:23:36.321Z,21.30
2023-09-18T11:34:47.342Z,21.30
2023-09-18T11:39:58.225Z,21.30
2023-09-18T11:45:00.625Z,21.40
2023-09-18T11:50:08.201Z,21.40
2023-09-18T11:55:10.767Z,21.40
2023-09-18T12:00:26.532Z,21.40
2023-09-18T12:05:45.667Z,21.40
2023-09-18T12:22:07.498Z,21.40
2023-09-18T12:27:26.887Z,21.40
2023-09-18T12:32:49.268Z,21.40
2023-09-18T12:37:55.900Z,21.40
2023-09-18T12:43:16.120Z,21.40
2023-09-18T12:48:24.308Z,21.40
2023-09-18T12:53:30.208Z,21.40
2023-09-18T12:58:48.623Z,21.40
2023-09-18T13:04:15.009Z,21.40
2023-09-18T13:09:28.245Z,21.40
2023-09-18T13:15:10.496Z,21.40
2023-09-18T13:20:58.155Z,21.40
2023-09-18T13:26:27.282Z,21.40
2023-09-18T13:32:02.214Z,21.40
2023-09-18T13:37:20.896Z,21.40
2023-09-18T13:42:55.076Z,21.40
2023-09-18T13:48:05.284Z,21.40
2023-09-18T13:53:12.554Z,21.40
2023-09-18T13:58:20.307Z,21.40
2023-09-18T14:03:23.265Z,21.40
2023-09-18T14:08:25.585Z,21.40
2023-09-18T14:13:27.688Z,21.40
2023-09-18T14:18:30.179Z,21.50
2023-09-18T14:23:32.610Z,21.50
2023-09-18T14:28:34.566Z,21.50
2023-09-18T14:33:37.826Z,21.50
2023-09-18T14:38:40.301Z,21.50
2023-09-18T14:43:42.350Z,21.50
2023-09-18T14:48:44.432Z,21.50
2023-09-18T14:53:46.346Z,21.50
2023-09-18T14:58:48.264Z,21.50
2023-09-18T15:03:50.268Z,21.50
2023-09-18T15:08:52.587Z,21.50
2023-09-18T15:13:54.630Z,21.50
2023-09-18T15:18:58.832Z,21.50
2023-09-18T15:24:02.633Z,21.50
2023-09-18T15:29:07.921Z,21.50
2023-09-18T15:34:12.195Z,21.50
2023-09-18T15:39:14.475Z,21.40
2023-09-18T15:44:16.824Z,21.40
2023-09-18T15:49:24.227Z,21.40
2023-09-18T15:54:26.305Z,21.40
2023-09-18T15:59:30.307Z,21.40
2023-09-18T16:04:32.406Z,21.50
2023-09-18T16:09:35.276Z,21.70
2023-09-18T16:14:37.450Z,22.10
2023-09-18T16:19:39.372Z,22.40
2023-09-18T16:24:41.326Z,22.60
2023-09-18T16:29:43.375Z,22.80
2023-09-18T16:34:45.503Z,22.90
2023-09-18T16:39:49.923Z,22.90
2023-09-18T16:44:52.001Z,22.90
2023-09-18T16:49:54.134Z,23.00
2023-09-18T16:54:57.131Z,22.90
2023-09-18T17:00:00.609Z,22.80
2023-09-18T17:05:05.720Z,22.60
2023-09-18T17:10:08.960Z,22.40
2023-09-18T17:15:11.105Z,22.30
2023-09-18T17:20:13.460Z,22.20
2023-09-18T17:25:16.540Z,22.20
2023-09-18T17:30:18.695Z,22.10
2023-09-18T17:35:21.338Z,22.10
2023-09-18T17:40:23.816Z,22.00
2023-09-18T17:45:25.968Z,21.90
2023-09-18T17:50:28.767Z,21.90
2023-09-18T17:55:30.691Z,21.90
2023-09-18T18:00:32.538Z,21.80
2023-09-18T18:05:34.905Z,21.80
2023-09-18T18:10:36.915Z,21.80
2023-09-18T18:15:39.770Z,21.70
2023-09-18T18:20:46.429Z,21.70
2023-09-18T18:25:51.102Z,21.70
2023-09-18T18:30:54.228Z,21.60
2023-09-18T18:35:56.225Z,21.60
2023-09-18T18:41:02.011Z,21.50
2023-09-18T18:46:10.894Z,21.50
2023-09-18T18:51:18.849Z,21.50
2023-09-18T18:56:21.596Z,21.50
2023-09-18T19:01:25.667Z,21.50
2023-09-18T19:06:28.601Z,21.40
2023-09-18T19:11:31.363Z,21.40
2023-09-18T19:16:33.499Z,21.40
2023-09-18T19:21:35.769Z,21.40
2023-09-18T19:26:37.788Z,21.40
2023-09-18T19:31:39.762Z,21.40
2023-09-18T19:36:52.513Z,21.40
2023-09-18T19:42:04.445Z,21.40
2023-09-18T19:47:06.647Z,21.30
2023-09-18T19:52:10.221Z,21.30
2023-09-18T19:57:12.266Z,21.40
2023-09-18T20:02:17.772Z,21.40
2023-09-18T20:07:21.996Z,21.40
2023-09-18T20:12:23.911Z,21.40
2023-09-18T20:17:25.883Z,21.50
2023-09-18T20:22:29.007Z,21.50
2023-09-18T20:32:36.341Z,21.50
2023-09-18T20:37:38.311Z,21.50
2023-09-18T20:42:40.780Z,21.50
2023-09-18T20:47:42.948Z,21.50
2023-09-18T20:52:44.837Z,21.50
2023-09-18T20:57:46.749Z,21.50
2023-09-18T21:02:49.058Z,21.40
2023-09-18T21:07:51.079Z,21.50
2023-09-18T21:12:53.046Z,21.40
2023-09-18T21:17:55.009Z,21.40
2023-09-18T21:23:02.925Z,21.40
2023-09-18T21:28:05.219Z,21.40
2023-09-18T21:33:07.210Z,21.40
2023-09-18T21:38:09.222Z,21.40
2023-09-18T21:43:11.230Z,21.40
2023-09-18T21:48:13.175Z,21.40
2023-09-18T21:53:15.287Z,21.40
2023-09-18T21:58:17.228Z,21.40
2023-09-18T22:03:19.494Z,21.40
2023-09-18T22:08:22.114Z,21.40
2023-09-18T22:13:23.988Z,21.30
2023-09-18T22:18:26.288Z,21.30
2023-09-18T22:23:29.444Z,21.40
2023-09-18T22:28:31.980Z,21.40
2023-09-18T22:33:33.994Z,21.30
2023-09-18T22:38:53.032Z,21.30
2023-09-18T22:44:32.721Z,21.30
2023-09-18T22:50:13.556Z,21.30
2023-09-18T22:55:22.180Z,21.30
2023-09-18T23:00:30.024Z,21.30
2023-09-18T23:05:36.961Z,21.30
2023-09-18T23:10:39.486Z,21.30
2023-09-18T23:15:44.208Z,21.30
2023-09-18T23:20:47.269Z,21.30
2023-09-18T23:25:54.558Z,21.30
2023-09-18T23:30:58.359Z,21.30
2023-09-18T23:36:00.295Z,21.30
2023-09-18T23:41:06.298Z,21.30
2023-09-18T23:46:11.964Z,21.30
2023-09-18T23:51:14.078Z,21.30
2023-09-18T23:56:17.867Z,21.30
